createdAt,value
2022-09-14T00:00:03.781Z,21.30
2022-09-14T00:05:08.937Z,21.30
2022-09-14T00:10:12.085Z,21.20
2022-09-14T00:15:15.274Z,21.20
2022-09-14T00:20:19.772Z,21.20
2022-09-14T00:25:22.910Z,21.20
2022-09-14T00:30:26.330Z,21.20
2022-09-14T00:35:30.800Z,21.20
2022-09-14T00:40:33.897Z,21.20
2022-09-14T00:45:36.998Z,21.10
2022-09-14T00:50:41.684Z,21.10
2022-09-14T00:55:44.800Z,21.00
2022-09-14T01:00:48.015Z,21.00
2022-09-14T01:06:04.285Z,21.00
2022-09-14T01:11:29.383Z,21.00
2022-09-14T01:16:38.773Z,21.00
2022-09-14T01:21:45.405Z,21.10
2022-09-14T01:27:16.565Z,21.10
2022-09-14T01:32:23.320Z,21.10
2022-09-14T01:37:30.625Z,21.10
2022-09-14T01:42:36.388Z,21.10
2022-09-14T01:47:43.301Z,21.10
2022-09-14T01:52:49.857Z,21.10
2022-09-14T01:57:58.777Z,21.10
2022-09-14T02:03:08.460Z,21.10
2022-09-14T02:08:11.623Z,21.10
2022-09-14T02:13:16.089Z,21.10
2022-09-14T02:18:19.558Z,21.00
2022-09-14T02:23:23.434Z,21.00
2022-09-14T02:28:27.913Z,21.00
2022-09-14T02:33:38.627Z,20.90
2022-09-14T02:38:46.825Z,20.80
2022-09-14T02:43:56.979Z,20.70
2022-09-14T02:49:07.697Z,20.70
2022-09-14T02:54:15.884Z,20.80
2022-09-14T02:59:20.475Z,20.80
2022-09-14T03:04:24.112Z,20.80
2022-09-14T03:09:27.305Z,20.80
2022-09-14T03:14:31.866Z,20.80
2022-09-14T03:19:34.971Z,20.70
2022-09-14T03:24:38.053Z,20.70
2022-09-14T03:29:42.600Z,20.70
2022-09-14T03:34:45.840Z,20.60
2022-09-14T03:39:48.945Z,20.60
2022-09-14T03:44:53.473Z,20.50
2022-09-14T03:49:57.065Z,20.50
2022-09-14T03:55:00.153Z,20.50
2022-09-14T04:00:07.737Z,20.50
2022-09-14T04:05:10.961Z,20.50
2022-09-14T04:10:14.130Z,20.50
2022-09-14T04:15:18.745Z,20.50
2022-09-14T04:20:21.971Z,20.50
2022-09-14T04:25:25.084Z,20.60
2022-09-14T04:30:29.728Z,20.60
2022-09-14T04:35:33.007Z,20.60
2022-09-14T04:40:36.083Z,20.60
2022-09-14T04:45:40.937Z,20.50
2022-09-14T04:50:44.632Z,20.50
2022-09-14T04:55:47.846Z,20.50
2022-09-14T05:00:52.349Z,20.50
2022-09-14T05:05:55.485Z,20.60
2022-09-14T05:10:58.904Z,20.60
2022-09-14T05:16:11.600Z,20.60
2022-09-14T05:21:16.732Z,20.60
2022-09-14T05:26:19.795Z,20.60
2022-09-14T05:31:25.623Z,20.60
2022-09-14T05:36:28.736Z,20.60
2022-09-14T05:41:31.824Z,20.50
2022-09-14T05:46:36.336Z,20.50
2022-09-14T05:51:39.517Z,20.50
2022-09-14T05:56:42.673Z,20.50
2022-09-14T06:01:47.180Z,20.40
2022-09-14T06:07:07.992Z,20.50
2022-09-14T06:12:14.614Z,20.50
2022-09-14T06:17:19.083Z,20.50
2022-09-14T06:22:22.188Z,20.50
2022-09-14T06:27:25.517Z,20.60
2022-09-14T06:32:31.904Z,20.60
2022-09-14T06:37:34.977Z,20.70
2022-09-14T06:42:38.043Z,20.70
2022-09-14T06:47:42.581Z,20.80
2022-09-14T06:52:45.692Z,20.80
2022-09-14T06:57:49.436Z,20.80
2022-09-14T07:02:55.888Z,20.90
2022-09-14T07:07:59.311Z,20.90
2022-09-14T07:13:02.575Z,20.90
2022-09-14T07:18:07.132Z,20.90
2022-09-14T07:23:12.636Z,20.90
2022-09-14T07:28:16.161Z,20.90
2022-09-14T07:33:20.584Z,20.90
2022-09-14T07:38:41.777Z,21.00
2022-09-14T07:43:50.017Z,21.10
2022-09-14T07:48:57.978Z,21.20
2022-09-14T07:54:01.696Z,21.30
2022-09-14T08:04:30.058Z,21.70
2022-09-14T08:09:33.333Z,21.90
2022-09-14T08:14:36.980Z,22.10
2022-09-14T08:19:41.905Z,22.30
2022-09-14T08:24:45.021Z,22.50
2022-09-14T08:29:48.181Z,22.70
2022-09-14T08:34:52.645Z,22.80
2022-09-14T08:39:55.770Z,23.00
2022-09-14T08:45:05.097Z,23.20
2022-09-14T08:50:17.685Z,23.30
2022-09-14T08:55:34.526Z,23.50
2022-09-14T09:00:43.688Z,23.60
2022-09-14T09:05:54.273Z,23.80
2022-09-14T09:11:00.611Z,24.00
2022-09-14T09:16:07.460Z,24.30
2022-09-14T09:21:16.693Z,24.40
2022-09-14T09:26:28.230Z,24.60
2022-09-14T09:31:35.920Z,24.70
2022-09-14T09:36:42.956Z,24.90
2022-09-14T09:41:49.588Z,25.00
2022-09-14T09:46:55.525Z,25.20
2022-09-14T09:52:08.563Z,25.30
2022-09-14T09:57:23.079Z,25.50
2022-09-14T10:02:29.411Z,25.70
2022-09-14T10:07:36.096Z,25.80
2022-09-14T10:12:46.040Z,26.00
2022-09-14T10:18:08.008Z,26.20
2022-09-14T10:23:36.246Z,26.40
2022-09-14T10:28:41.052Z,26.50
2022-09-14T10:33:44.323Z,26.50
2022-09-14T10:38:53.184Z,26.70
2022-09-14T10:44:31.860Z,26.90
2022-09-14T10:49:48.116Z,26.90
2022-09-14T10:55:23.647Z,27.00
2022-09-14T11:00:29.061Z,27.10
2022-09-14T11:05:36.668Z,27.10
2022-09-14T11:10:52.710Z,27.20
2022-09-14T11:16:02.998Z,27.40
2022-09-14T11:21:16.394Z,27.50
2022-09-14T11:26:25.937Z,27.60
2022-09-14T11:31:34.128Z,27.70
2022-09-14T11:36:43.095Z,27.80
2022-09-14T11:41:53.213Z,27.90
2022-09-14T11:47:03.077Z,28.00
2022-09-14T11:52:14.894Z,28.20
2022-09-14T11:57:20.937Z,28.30
2022-09-14T12:02:49.231Z,28.40
2022-09-14T12:08:03.895Z,28.50
2022-09-14T12:13:21.605Z,28.60
2022-09-14T12:18:28.344Z,28.50
2022-09-14T12:23:42.861Z,28.50
2022-09-14T12:28:50.545Z,28.50
2022-09-14T12:34:19.355Z,28.40
2022-09-14T12:39:24.401Z,28.40
2022-09-14T12:44:34.765Z,28.40
2022-09-14T12:49:38.204Z,28.30
2022-09-14T12:54:52.405Z,28.20
2022-09-14T13:00:05.089Z,28.30
2022-09-14T13:05:14.525Z,28.20
2022-09-14T13:10:21.080Z,28.20
2022-09-14T13:15:28.930Z,28.10
2022-09-14T13:20:33.947Z,28.10
2022-09-14T13:25:39.624Z,28.20
2022-09-14T13:30:44.915Z,28.20
2022-09-14T13:35:51.852Z,28.20
2022-09-14T13:40:57.648Z,28.20
2022-09-14T13:46:03.066Z,28.20
2022-09-14T13:51:07.214Z,28.20
2022-09-14T13:56:21.778Z,28.20
2022-09-14T14:01:28.379Z,28.20
2022-09-14T14:06:34.864Z,28.30
2022-09-14T14:11:41.146Z,28.30
2022-09-14T14:17:11.726Z,28.40
2022-09-14T14:22:20.271Z,28.40
2022-09-14T14:27:31.552Z,28.30
2022-09-14T14:32:36.002Z,28.30
2022-09-14T14:37:39.072Z,28.30
2022-09-14T14:42:42.776Z,28.20
2022-09-14T14:47:47.626Z,28.20
2022-09-14T14:52:51.596Z,28.20
2022-09-14T14:57:55.305Z,28.00
2022-09-14T15:03:00.193Z,27.70
2022-09-14T15:08:03.617Z,27.20
2022-09-14T15:13:07.365Z,26.60
2022-09-14T15:18:15.732Z,26.10
2022-09-14T15:23:18.804Z,25.60
2022-09-14T15:28:22.956Z,25.10
2022-09-14T15:33:27.404Z,24.70
2022-09-14T15:38:30.605Z,24.30
2022-09-14T15:43:33.903Z,24.00
2022-09-14T15:48:41.132Z,23.80
2022-09-14T15:53:45.685Z,23.60
2022-09-14T15:58:48.771Z,23.50
2022-09-14T16:03:57.645Z,23.50
2022-09-14T16:09:02.305Z,23.40
2022-09-14T16:14:06.317Z,23.30
2022-09-14T16:19:12.599Z,23.20
2022-09-14T16:24:18.059Z,23.10
2022-09-14T16:29:24.242Z,23.00
2022-09-14T16:34:30.804Z,22.90
2022-09-14T16:39:35.062Z,22.80
2022-09-14T16:44:38.240Z,22.80
2022-09-14T16:49:42.695Z,22.80
2022-09-14T16:54:45.776Z,22.80
2022-09-14T16:59:48.901Z,22.90
2022-09-14T17:04:53.872Z,23.00
2022-09-14T17:09:56.989Z,23.00
2022-09-14T17:15:00.116Z,23.00
2022-09-14T17:20:05.388Z,23.00
2022-09-14T17:25:11.165Z,23.00
2022-09-14T17:30:16.099Z,23.00
2022-09-14T17:35:20.562Z,22.90
2022-09-14T17:40:23.855Z,22.90
2022-09-14T17:45:27.047Z,22.90
2022-09-14T17:50:31.720Z,22.90
2022-09-14T17:55:35.120Z,22.80
2022-09-14T18:00:38.258Z,22.80
2022-09-14T18:05:42.725Z,22.80
2022-09-14T18:10:46.189Z,22.70
2022-09-14T18:15:49.378Z,22.70
2022-09-14T18:20:53.949Z,22.70
2022-09-14T18:25:57.312Z,22.60
2022-09-14T18:31:05.327Z,22.60
2022-09-14T18:36:10.245Z,22.60
2022-09-14T18:41:14.793Z,22.60
2022-09-14T18:46:18.978Z,22.70
2022-09-14T18:51:23.809Z,22.70
2022-09-14T18:56:28.033Z,22.60
2022-09-14T19:01:31.394Z,22.50
2022-09-14T19:06:37.370Z,22.50
2022-09-14T19:11:40.524Z,22.40
2022-09-14T19:16:43.853Z,22.30
2022-09-14T19:21:48.304Z,22.30
2022-09-14T19:26:52.832Z,22.20
2022-09-14T19:31:56.209Z,22.20
2022-09-14T19:37:00.748Z,22.20
2022-09-14T19:42:03.852Z,22.20
2022-09-14T19:47:07.011Z,22.10
2022-09-14T19:52:11.496Z,22.10
2022-09-14T19:57:14.661Z,22.10
2022-09-14T20:02:17.905Z,22.10
2022-09-14T20:07:22.831Z,22.10
2022-09-14T20:12:25.875Z,22.20
2022-09-14T20:17:29.019Z,22.10
2022-09-14T20:22:33.552Z,22.10
2022-09-14T20:27:36.643Z,22.10
2022-09-14T20:32:39.769Z,22.00
2022-09-14T20:37:44.612Z,22.00
2022-09-14T20:42:47.805Z,22.00
2022-09-14T20:47:50.970Z,22.00
2022-09-14T20:52:55.513Z,22.00
2022-09-14T20:57:58.704Z,21.90
2022-09-14T21:03:01.916Z,21.90
2022-09-14T21:08:07.302Z,21.90
2022-09-14T21:13:10.367Z,21.90
2022-09-14T21:18:16.573Z,21.90
2022-09-14T21:23:23.148Z,21.80
2022-09-14T21:28:26.222Z,21.70
2022-09-14T21:33:29.305Z,21.50
2022-09-14T21:38:33.793Z,21.40
2022-09-14T21:43:37.953Z,21.30
2022-09-14T21:48:41.329Z,21.30
2022-09-14T21:53:47.660Z,21.30
2022-09-14T21:58:51.805Z,21.30
2022-09-14T22:03:56.237Z,21.30
2022-09-14T22:09:01.601Z,21.30
2022-09-14T22:14:07.323Z,21.40
2022-09-14T22:19:15.695Z,21.30
2022-09-14T22:24:22.873Z,21.20
2022-09-14T22:29:26.219Z,21.20
2022-09-14T22:34:30.137Z,21.10
2022-09-14T22:39:34.965Z,21.00
2022-09-14T22:44:38.185Z,20.90
2022-09-14T22:49:41.290Z,20.90
2022-09-14T22:54:45.716Z,20.90
2022-09-14T22:59:48.786Z,21.00
2022-09-14T23:04:51.853Z,21.00
2022-09-14T23:09:56.352Z,21.00
2022-09-14T23:14:59.413Z,21.10
2022-09-14T23:20:04.304Z,21.00
2022-09-14T23:25:10.131Z,21.00
2022-09-14T23:30:14.491Z,20.90
2022-09-14T23:35:17.896Z,20.90
2022-09-14T23:40:22.497Z,20.80
2022-09-14T23:45:25.786Z,20.70
2022-09-14T23:50:29.303Z,20.70
2022-09-14T23:55:34.032Z,20.60
